^^
Station Historical Data
Daily Summary for May 8, 2021 Units:  English    Metric   Both
Daily Weekly Monthly Yearly
  High: Low: Average:
Temperature: 52.9 °F 38.2 °F 44.8 °F
Dew Point: 42.6 °F 33.1 °F 37.5 °F
Humidity: 90% 48% 76%
Wind Speed: 8mph 0mph 3.7mph
Wind Gust: 13mph - -
Wind- - SW
Pressure: 30.05 in 29.95 in -
Precipitation: 0.01 in    
 
 
Tabular Data for May 8, 2021
Time Temperature Dew Point Pressure Wind Wind Speed Wind Gust Humidity Rainfall Rate (Hourly) solar
00:00 39.7 °F 37 °F 29.95 in North 7 mph 7 mph 90% 0.00 in 0 W/m2
00:05 39.7 °F 37 °F 29.95 in ENE 7 mph 7 mph 90% 0.00 in 0 W/m2
00:10 39.6 °F 36.9 °F 29.95 in NNW 8 mph 8 mph 90% 0.00 in 0 W/m2
00:15 39.6 °F 36.9 °F 29.95 in North 8 mph 10 mph 90% 0.00 in 0 W/m2
00:20 39.7 °F 37 °F 29.95 in NNW 8 mph 8 mph 90% 0.00 in 0 W/m2
00:25 39.7 °F 37 °F 29.95 in NNW 7 mph 13 mph 90% 0.00 in 0 W/m2
00:30 39.6 °F 36.9 °F 29.95 in North 7 mph 10 mph 90% 0.00 in 0 W/m2
00:35 39.6 °F 36.9 °F 29.95 in NW 7 mph 10 mph 90% 0.00 in 0 W/m2
00:40 39.6 °F 36.6 °F 29.95 in NNW 8 mph 12 mph 89% 0.00 in 0 W/m2
00:45 39.7 °F 36.7 °F 29.96 in North 8 mph 12 mph 89% 0.00 in 0 W/m2
00:50 39.6 °F 36.6 °F 29.96 in NNE 8 mph 10 mph 89% 0.00 in 0 W/m2
00:55 39.5 °F 36.5 °F 29.95 in North 8 mph 11 mph 89% 0.00 in 0 W/m2
01:00 39.5 °F 36.5 °F 29.96 in NNE 8 mph 8 mph 89% 0.00 in 0 W/m2
01:05 39.6 °F 36.6 °F 29.96 in NNE 6 mph 11 mph 89% 0.00 in 0 W/m2
01:10 39.5 °F 36.5 °F 29.96 in North 5 mph 5 mph 89% 0.00 in 0 W/m2
01:15 39.5 °F 36.5 °F 29.96 in NE 5 mph 6 mph 89% 0.00 in 0 W/m2
01:20 39.5 °F 36.5 °F 29.96 in NNE 5 mph 5 mph 89% 0.00 in 0 W/m2
01:25 39.5 °F 36.5 °F 29.96 in North 4 mph 5 mph 89% 0.00 in 0 W/m2
01:30 39.5 °F 36.5 °F 29.96 in NNW 5 mph 5 mph 89% 0.00 in 0 W/m2
01:35 39.5 °F 36.5 °F 29.96 in North 5 mph 5 mph 89% 0.00 in 0 W/m2
01:40 39.5 °F 36.5 °F 29.96 in NNE 5 mph 5 mph 89% 0.00 in 0 W/m2
01:45 39.6 °F 36.6 °F 29.96 in North 6 mph 6 mph 89% 0.00 in 0 W/m2
01:50 39.8 °F 36.5 °F 29.96 in NW 5 mph 5 mph 88% 0.00 in 0 W/m2
01:55 39.8 °F 36.5 °F 29.96 in North 6 mph 6 mph 88% 0.00 in 0 W/m2
02:00 39.9 °F 36.6 °F 29.95 in NNE 6 mph 6 mph 88% 0.00 in 0 W/m2
02:05 40 °F 36.7 °F 29.96 in NNW 6 mph 6 mph 88% 0.00 in 0 W/m2
02:10 40 °F 36.4 °F 29.96 in NNW 6 mph 6 mph 87% 0.00 in 0 W/m2
02:15 40 °F 36.4 °F 29.96 in NW 6 mph 6 mph 87% 0.00 in 0 W/m2
02:20 40 °F 36.4 °F 29.96 in West 5 mph 7 mph 87% 0.00 in 0 W/m2
02:25 39.9 °F 36.1 °F 29.96 in North 6 mph 7 mph 86% 0.00 in 0 W/m2
02:30 39.9 °F 36.1 °F 29.96 in NW 6 mph 6 mph 86% 0.00 in 0 W/m2
02:35 39.8 °F 35.7 °F 29.96 in NW 5 mph 6 mph 85% 0.00 in 0 W/m2
02:40 39.8 °F 36 °F 29.96 in North 5 mph 5 mph 86% 0.00 in 0 W/m2
02:45 39.8 °F 36 °F 29.96 in NNW 5 mph 5 mph 86% 0.00 in 0 W/m2
02:50 39.8 °F 36 °F 29.96 in NW 5 mph 5 mph 86% 0.00 in 0 W/m2
02:55 39.8 °F 36 °F 29.97 in WNW 5 mph 5 mph 86% 0.00 in 0 W/m2
03:00 39.7 °F 35.6 °F 29.96 in West 5 mph 5 mph 85% 0.00 in 0 W/m2
03:05 39.6 °F 35.5 °F 29.97 in NE 4 mph 5 mph 85% 0.00 in 0 W/m2
03:10 39.7 °F 35.6 °F 29.97 in North 5 mph 9 mph 85% 0.00 in 0 W/m2
03:15 39.6 °F 35.5 °F 29.97 in North 5 mph 9 mph 85% 0.00 in 0 W/m2
03:20 39.6 °F 35.5 °F 29.97 in North 6 mph 10 mph 85% 0.00 in 0 W/m2
03:25 39.7 °F 35.9 °F 29.97 in NW 5 mph 10 mph 86% 0.00 in 0 W/m2
03:30 39.7 °F 35.9 °F 29.97 in NNW 4 mph 4 mph 86% 0.00 in 0 W/m2
03:35 39.7 °F 35.9 °F 29.97 in North 5 mph 5 mph 86% 0.00 in 0 W/m2
03:40 39.6 °F 35.5 °F 29.97 in NNW 5 mph 5 mph 85% 0.00 in 0 W/m2
03:45 39.5 °F 35.4 °F 29.97 in NW 5 mph 5 mph 85% 0.00 in 0 W/m2
03:50 39.5 °F 35.4 °F 29.97 in NNW 5 mph 5 mph 85% 0.00 in 0 W/m2
03:55 39.5 °F 35.1 °F 29.96 in NE 6 mph 6 mph 84% 0.00 in 0 W/m2
04:00 39.4 °F 35 °F 29.96 in NE 5 mph 5 mph 84% 0.00 in 0 W/m2
04:05 39.3 °F 34.9 °F 29.97 in NW 5 mph 5 mph 84% 0.00 in 0 W/m2
04:10 39.2 °F 34.5 °F 29.97 in NW 4 mph 4 mph 83% 0.00 in 0 W/m2
04:15 39.1 °F 34.4 °F 29.97 in NNW 4 mph 4 mph 83% 0.00 in 0 W/m2
04:20 39.2 °F 34.5 °F 29.97 in NNE 4 mph 4 mph 83% 0.00 in 0 W/m2
04:25 39.2 °F 34.5 °F 29.97 in NW 4 mph 4 mph 83% 0.00 in 0 W/m2
04:30 39.2 °F 34.5 °F 29.97 in NNW 4 mph 4 mph 83% 0.00 in 0 W/m2
04:35 39.2 °F 34.5 °F 29.98 in NW 4 mph 4 mph 83% 0.00 in 0 W/m2
04:40 39.3 °F 34.6 °F 29.98 in NW 4 mph 4 mph 83% 0.00 in 0 W/m2
04:45 39.2 °F 34.5 °F 29.98 in WNW 4 mph 4 mph 83% 0.00 in 0 W/m2
04:50 39.1 °F 34.4 °F 29.98 in NW 4 mph 4 mph 83% 0.00 in 0 W/m2
04:55 39 °F 34 °F 29.98 in West 3 mph 4 mph 82% 0.00 in 0 W/m2
05:00 38.9 °F 33.9 °F 29.98 in NNW 3 mph 3 mph 82% 0.00 in 0 W/m2
05:05 38.8 °F 33.8 °F 29.98 in NNW 3 mph 4 mph 82% 0.00 in 0 W/m2
05:10 38.6 °F 33.6 °F 29.98 in NW 4 mph 4 mph 82% 0.00 in 0 W/m2
05:15 38.5 °F 33.5 °F 29.98 in North 4 mph 4 mph 82% 0.00 in 0 W/m2
05:20 38.4 °F 33.4 °F 29.98 in NNW 4 mph 9 mph 82% 0.00 in 0 W/m2
05:25 38.3 °F 33.3 °F 29.98 in NW 5 mph 9 mph 82% 0.00 in 0 W/m2
05:30 38.3 °F 33.3 °F 29.98 in NNW 5 mph 5 mph 82% 0.00 in 0 W/m2
05:35 38.2 °F 33.2 °F 29.98 in West 5 mph 5 mph 82% 0.00 in 0 W/m2
05:40 38.2 °F 33.2 °F 29.98 in NNW 5 mph 6 mph 82% 0.00 in 0 W/m2
05:45 38.2 °F 33.5 °F 29.98 in WNW 5 mph 6 mph 83% 0.00 in 0 W/m2
05:50 38.3 °F 33.6 °F 29.98 in NNE 5 mph 12 mph 83% 0.00 in 0 W/m2
05:55 38.3 °F 33.6 °F 29.99 in NNW 5 mph 12 mph 83% 0.00 in 0 W/m2
06:00 38.4 °F 33.7 °F 29.99 in NNW 5 mph 5 mph 83% 0.00 in 0 W/m2
06:05 38.4 °F 33.7 °F 29.99 in NNW 5 mph 5 mph 83% 0.00 in 0 W/m2
06:10 38.3 °F 33.6 °F 29.99 in NNE 5 mph 6 mph 83% 0.00 in 0 W/m2
06:15 38.4 °F 33.7 °F 29.99 in NW 6 mph 6 mph 83% 0.00 in 0 W/m2
06:20 38.4 °F 33.4 °F 29.99 in NNE 5 mph 6 mph 82% 0.00 in 0 W/m2
06:25 38.4 °F 33.7 °F 29.99 in NNW 5 mph 6 mph 83% 0.00 in 5 W/m2
06:30 38.4 °F 33.7 °F 29.99 in North 5 mph 6 mph 83% 0.00 in 7 W/m2
06:35 38.5 °F 33.8 °F 30.00 in WNW 5 mph 6 mph 83% 0.00 in 9 W/m2
06:40 38.6 °F 33.9 °F 30.00 in NW 5 mph 5 mph 83% 0.00 in 12 W/m2
06:45 38.7 °F 34 °F 30.00 in NNW 5 mph 8 mph 83% 0.00 in 18 W/m2
06:50 38.7 °F 34 °F 30.00 in NNW 5 mph 5 mph 83% 0.00 in 21 W/m2
06:55 38.7 °F 34 °F 30.00 in NNW 5 mph 5 mph 83% 0.00 in 30 W/m2
07:00 38.8 °F 34.1 °F 30.00 in NNW 5 mph 12 mph 83% 0.00 in 42 W/m2
07:05 38.8 °F 34.1 °F 30.00 in WNW 4 mph 12 mph 83% 0.00 in 69 W/m2
07:10 39 °F 34.3 °F 30.01 in NNW 5 mph 6 mph 83% 0.00 in 91 W/m2
07:15 39.1 °F 34.4 °F 30.01 in NNW 5 mph 8 mph 83% 0.00 in 58 W/m2
07:20 39.1 °F 34.1 °F 30.01 in North 5 mph 5 mph 82% 0.00 in 39 W/m2
07:25 39 °F 34 °F 30.01 in North 5 mph 5 mph 82% 0.00 in 37 W/m2
07:30 38.9 °F 33.9 °F 30.01 in NNW 5 mph 5 mph 82% 0.00 in 39 W/m2
07:35 38.9 °F 33.9 °F 30.01 in NNW 4 mph 5 mph 82% 0.00 in 46 W/m2
07:40 38.8 °F 33.8 °F 30.01 in NNW 5 mph 6 mph 82% 0.00 in 40 W/m2
07:45 38.9 °F 33.9 °F 30.01 in NW 5 mph 6 mph 82% 0.00 in 53 W/m2
07:50 38.9 °F 33.9 °F 30.01 in NE 4 mph 4 mph 82% 0.00 in 46 W/m2
07:55 39 °F 34 °F 30.01 in ENE 4 mph 4 mph 82% 0.00 in 65 W/m2
08:00 39.1 °F 34.1 °F 30.01 in North 5 mph 5 mph 82% 0.00 in 79 W/m2
08:05 39.2 °F 34.2 °F 30.01 in NNW 5 mph 10 mph 82% 0.00 in 118 W/m2
08:10 39.3 °F 34.6 °F 30.01 in NNE 5 mph 8 mph 83% 0.00 in 237 W/m2
08:15 39.4 °F 34.7 °F 30.02 in NE 4 mph 8 mph 83% 0.00 in 279 W/m2
08:20 39.5 °F 34.8 °F 30.02 in NW 4 mph 6 mph 83% 0.00 in 295 W/m2
08:25 39.7 °F 34.7 °F 30.02 in NW 4 mph 6 mph 82% 0.00 in 311 W/m2
08:30 39.9 °F 34.9 °F 30.02 in NNW 3 mph 3 mph 82% 0.00 in 323 W/m2
08:35 40 °F 34.9 °F 30.02 in NNW 2 mph 3 mph 82% 0.00 in 341 W/m2
08:40 40.3 °F 35.2 °F 30.02 in ENE 3 mph 3 mph 82% 0.00 in 355 W/m2
08:45 40.6 °F 34.9 °F 30.02 in WNW 4 mph 4 mph 80% 0.00 in 373 W/m2
08:50 40.6 °F 34.9 °F 30.02 in NNE 4 mph 4 mph 80% 0.00 in 388 W/m2
08:55 40.9 °F 34.9 °F 30.03 in NNW 4 mph 6 mph 79% 0.00 in 403 W/m2
09:00 41 °F 35 °F 30.03 in NW 4 mph 4 mph 79% 0.00 in 415 W/m2
09:05 41.5 °F 35.8 °F 30.03 in NW 4 mph 4 mph 80% 0.00 in 429 W/m2
09:10 41.6 °F 35.6 °F 30.03 in NNW 3 mph 3 mph 79% 0.00 in 445 W/m2
09:15 41.7 °F 35.7 °F 30.03 in NW 4 mph 4 mph 79% 0.00 in 459 W/m2
09:20 41.8 °F 35.8 °F 30.03 in NE 4 mph 4 mph 79% 0.00 in 475 W/m2
09:25 41.9 °F 35.9 °F 30.03 in NNE 4 mph 5 mph 79% 0.00 in 489 W/m2
09:30 42.1 °F 35.7 °F 30.03 in North 5 mph 5 mph 78% 0.00 in 501 W/m2
09:35 42.5 °F 36.4 °F 30.03 in NNW 4 mph 5 mph 79% 0.00 in 515 W/m2
09:40 42.9 °F 36.5 °F 30.04 in WNW 3 mph 5 mph 78% 0.00 in 527 W/m2
09:45 43.1 °F 36.7 °F 30.04 in North 3 mph 5 mph 78% 0.00 in 541 W/m2
09:50 43.4 °F 36.7 °F 30.04 in NW 4 mph 6 mph 77% 0.00 in 555 W/m2
09:55 43.3 °F 36.2 °F 30.04 in NNW 4 mph 6 mph 76% 0.00 in 570 W/m2
10:00 43.7 °F 37 °F 30.04 in WNW 4 mph 4 mph 77% 0.00 in 582 W/m2
10:05 44 °F 36.9 °F 30.04 in North 3 mph 4 mph 76% 0.00 in 596 W/m2
10:10 44.3 °F 36.9 °F 30.05 in NW 3 mph 3 mph 75% 0.00 in 606 W/m2
10:15 44.4 °F 37 °F 30.05 in North 3 mph 3 mph 75% 0.00 in 615 W/m2
10:20 44.3 °F 36.2 °F 30.05 in North 3 mph 7 mph 73% 0.00 in 633 W/m2
10:25 44.7 °F 36.6 °F 30.04 in North 3 mph 7 mph 73% 0.00 in 645 W/m2
10:30 44.6 °F 36.8 °F 30.05 in WNW 3 mph 4 mph 74% 0.00 in 657 W/m2
10:35 44.9 °F 36.8 °F 30.05 in NNW 4 mph 4 mph 73% 0.00 in 668 W/m2
10:40 45.4 °F 37.6 °F 30.05 in WNW 3 mph 3 mph 74% 0.00 in 680 W/m2
10:45 45.2 °F 36.7 °F 30.05 in NW 3 mph 4 mph 72% 0.00 in 689 W/m2
10:50 45.8 °F 37.3 °F 30.05 in North 3 mph 4 mph 72% 0.00 in 700 W/m2
10:55 45.6 °F 37.1 °F 30.05 in NW 3 mph 4 mph 72% 0.00 in 712 W/m2
11:00 45.8 °F 37.6 °F 30.04 in NW 3 mph 3 mph 73% 0.00 in 722 W/m2
11:05 45.9 °F 37.4 °F 30.04 in NNE 2 mph 3 mph 72% 0.00 in 733 W/m2
11:10 45.7 °F 36.8 °F 30.04 in NNW 2 mph 2 mph 71% 0.00 in 742 W/m2
11:15 46 °F 37.5 °F 30.04 in NNW 2 mph 3 mph 72% 0.00 in 752 W/m2
11:20 46 °F 37.1 °F 30.04 in NNW 3 mph 5 mph 71% 0.00 in 761 W/m2
11:25 46.3 °F 37.4 °F 30.04 in North 3 mph 5 mph 71% 0.00 in 770 W/m2
11:30 46.2 °F 37.7 °F 30.04 in NNW 3 mph 3 mph 72% 0.00 in 780 W/m2
11:35 46.2 °F 38 °F 30.04 in NNW 2 mph 4 mph 73% 0.00 in 788 W/m2
11:40 46.5 °F 38.3 °F 30.04 in NNW 3 mph 3 mph 73% 0.00 in 795 W/m2
11:45 46.5 °F 37.6 °F 30.04 in NNW 3 mph 3 mph 71% 0.00 in 805 W/m2
11:50 46.7 °F 38.9 °F 30.04 in North 2 mph 2 mph 74% 0.00 in 812 W/m2
11:55 47.4 °F 39.2 °F 30.05 in NW 2 mph 2 mph 73% 0.00 in 821 W/m2
12:00 47.4 °F 39.2 °F 30.05 in NW 2 mph 2 mph 73% 0.00 in 826 W/m2
12:05 47 °F 37.4 °F 30.05 in West 3 mph 3 mph 69% 0.00 in 835 W/m2
12:10 47.2 °F 39 °F 30.05 in North 2 mph 3 mph 73% 0.00 in 842 W/m2
12:15 47.6 °F 37.9 °F 30.05 in WNW 1 mph 3 mph 69% 0.00 in 851 W/m2
12:20 48.7 °F 39.7 °F 30.05 in NW 2 mph 2 mph 71% 0.00 in 854 W/m2
12:25 48.3 °F 39.7 °F 30.05 in East 2 mph 3 mph 72% 0.00 in 861 W/m2
12:30 47.6 °F 38.3 °F 30.05 in SSW 2 mph 2 mph 70% 0.00 in 865 W/m2
12:35 46.9 °F 38 °F 30.05 in SSW 2 mph 2 mph 71% 0.00 in 870 W/m2
12:40 47.7 °F 39.1 °F 30.05 in SSW 2 mph 2 mph 72% 0.00 in 874 W/m2
12:45 47.2 °F 39 °F 30.05 in SSW 2 mph 4 mph 73% 0.00 in 879 W/m2
12:50 47.3 °F 38.7 °F 30.05 in SSW 3 mph 3 mph 72% 0.00 in 882 W/m2
12:55 47.6 °F 39.7 °F 30.05 in South 3 mph 4 mph 74% 0.00 in 886 W/m2
13:00 48.2 °F 40.3 °F 30.05 in SW 2 mph 2 mph 74% 0.00 in 888 W/m2
13:05 48.2 °F 40.3 °F 30.05 in SSW 2 mph 2 mph 74% 0.00 in 891 W/m2
13:10 48.8 °F 41.2 °F 30.05 in SSW 2 mph 3 mph 75% 0.00 in 895 W/m2
13:15 49 °F 40.4 °F 30.05 in SW 2 mph 3 mph 72% 0.00 in 896 W/m2
13:20 49 °F 39.3 °F 30.05 in WSW 3 mph 8 mph 69% 0.00 in 902 W/m2
13:25 49.8 °F 40.4 °F 30.05 in SW 3 mph 8 mph 70% 0.00 in 905 W/m2
13:30 49.5 °F 40.1 °F 30.05 in SSW 3 mph 3 mph 70% 0.00 in 911 W/m2
13:35 49.2 °F 39.8 °F 30.05 in SW 3 mph 3 mph 70% 0.00 in 919 W/m2
13:40 50.3 °F 40.5 °F 30.05 in SSW 3 mph 4 mph 69% 0.00 in 928 W/m2
13:45 50.8 °F 41.7 °F 30.05 in WSW 4 mph 4 mph 71% 0.00 in 944 W/m2
13:50 50.9 °F 40.7 °F 30.04 in SW 4 mph 4 mph 68% 0.00 in 997 W/m2
13:55 50.5 °F 39.9 °F 30.05 in SSW 3 mph 4 mph 67% 0.00 in 538 W/m2
14:00 49.9 °F 39.4 °F 30.04 in SW 3 mph 3 mph 67% 0.00 in 383 W/m2
14:05 49.3 °F 38.8 °F 30.04 in SW 3 mph 3 mph 67% 0.00 in 330 W/m2
14:10 48.9 °F 38.4 °F 30.04 in SW 3 mph 3 mph 67% 0.00 in 459 W/m2
14:15 50.3 °F 40.1 °F 30.04 in SSW 3 mph 4 mph 68% 0.00 in 731 W/m2
14:20 50.5 °F 39.2 °F 30.04 in SSW 3 mph 3 mph 65% 0.00 in 1078 W/m2
14:25 50.8 °F 40.6 °F 30.04 in SW 3 mph 3 mph 68% 0.00 in 1143 W/m2
14:30 51.5 °F 41.3 °F 30.04 in SSW 3 mph 4 mph 68% 0.00 in 1069 W/m2
14:35 51.3 °F 40.3 °F 30.04 in SW 3 mph 4 mph 66% 0.00 in 675 W/m2
14:40 51.1 °F 39.7 °F 30.04 in SSW 3 mph 3 mph 65% 0.00 in 754 W/m2
14:45 51.1 °F 40.1 °F 30.04 in SSW 3 mph 3 mph 66% 0.00 in 526 W/m2
14:50 50.4 °F 39.1 °F 30.04 in South 3 mph 4 mph 65% 0.00 in 482 W/m2
14:55 50.4 °F 39.9 °F 30.03 in SSW 3 mph 4 mph 67% 0.00 in 503 W/m2
15:00 50.9 °F 39.5 °F 30.04 in SSW 3 mph 3 mph 65% 0.00 in 519 W/m2
15:05 50.6 °F 38.5 °F 30.04 in SSW 3 mph 3 mph 63% 0.00 in 425 W/m2
15:10 50.1 °F 39.9 °F 30.04 in South 2 mph 2 mph 68% 0.00 in 338 W/m2
15:15 50.5 °F 39.6 °F 30.04 in SSW 1 mph 2 mph 66% 0.00 in 287 W/m2
15:20 50.3 °F 38.6 °F 30.04 in SW 2 mph 2 mph 64% 0.00 in 257 W/m2
15:25 50.3 °F 39 °F 30.04 in SW 2 mph 3 mph 65% 0.00 in 269 W/m2
15:30 50.6 °F 38.9 °F 30.04 in SW 2 mph 3 mph 64% 0.00 in 345 W/m2
15:35 50.9 °F 39.1 °F 30.04 in SSW 3 mph 3 mph 64% 0.00 in 462 W/m2
15:40 51.7 °F 40.3 °F 30.03 in WSW 3 mph 3 mph 65% 0.00 in 772 W/m2
15:45 51.7 °F 40.3 °F 30.03 in SW 2 mph 3 mph 65% 0.00 in 624 W/m2
15:50 51.6 °F 39 °F 30.03 in SW 2 mph 3 mph 62% 0.00 in 606 W/m2
15:55 51.2 °F 38.6 °F 30.03 in SSW 3 mph 3 mph 62% 0.00 in 946 W/m2
16:00 52.1 °F 38.6 °F 30.03 in SW 3 mph 3 mph 60% 0.00 in 956 W/m2
16:05 52 °F 39.4 °F 30.03 in SSW 3 mph 4 mph 62% 0.00 in 287 W/m2
16:10 51.2 °F 38.6 °F 30.03 in SSW 3 mph 3 mph 62% 0.00 in 288 W/m2
16:15 51 °F 38.8 °F 30.03 in SSW 3 mph 3 mph 63% 0.00 in 272 W/m2
16:20 50.8 °F 37.8 °F 30.03 in SSW 2 mph 3 mph 61% 0.00 in 316 W/m2
16:25 51 °F 38.4 °F 30.03 in SSW 2 mph 3 mph 62% 0.00 in 297 W/m2
16:30 51.2 °F 37.8 °F 30.03 in SW 2 mph 2 mph 60% 0.00 in 281 W/m2
16:35 51.1 °F 37.7 °F 30.03 in SW 2 mph 2 mph 60% 0.00 in 272 W/m2
16:40 51.3 °F 37.4 °F 30.03 in SW 1 mph 1 mph 59% 0.00 in 271 W/m2
16:45 51.2 °F 36.5 °F 30.03 in SW 1 mph 3 mph 57% 0.00 in 265 W/m2
16:50 51.1 °F 36.4 °F 30.03 in SW 2 mph 2 mph 57% 0.00 in 251 W/m2
16:55 51 °F 37.6 °F 30.03 in SW 1 mph 2 mph 60% 0.00 in 251 W/m2
17:00 51.4 °F 37.1 °F 30.03 in SW 1 mph 2 mph 58% 0.00 in 313 W/m2
17:05 52.1 °F 38.2 °F 30.03 in SSW 2 mph 2 mph 59% 0.00 in 408 W/m2
17:10 52.4 °F 36.2 °F 30.03 in SW 2 mph 5 mph 54% 0.00 in 846 W/m2
17:15 52.9 °F 36.2 °F 30.03 in SSW 2 mph 5 mph 53% 0.00 in 738 W/m2
17:20 52.5 °F 34.9 °F 30.03 in SSW 1 mph 1 mph 51% 0.00 in 645 W/m2
17:25 52.2 °F 33.1 °F 30.03 in SSW 1 mph 1 mph 48% 0.00 in 601 W/m2
17:30 52.3 °F 40.9 °F 30.03 in NNE 1 mph 3 mph 65% 0.00 in 577 W/m2
17:35 52.6 °F 41.2 °F 30.02 in East 2 mph 3 mph 65% 0.00 in 563 W/m2
17:40 52.5 °F 41.1 °F 30.02 in ENE 3 mph 3 mph 65% 0.00 in 547 W/m2
17:45 52.6 °F 41.6 °F 30.02 in ENE 3 mph 3 mph 66% 0.00 in 399 W/m2
17:50 51.9 °F 40.5 °F 30.02 in ENE 2 mph 3 mph 65% 0.00 in 285 W/m2
17:55 51.4 °F 40.4 °F 30.02 in ENE 2 mph 3 mph 66% 0.00 in 200 W/m2
19:35 50.4 °F 39.1 °F 30.02 in NE 1 mph 1 mph 65% 0.00 in 142 W/m2
19:40 50.7 °F 39.4 °F 30.02 in ENE 1 mph 3 mph 65% 0.00 in 156 W/m2
19:45 50.5 °F 39.6 °F 30.02 in ENE 2 mph 3 mph 66% 0.00 in 104 W/m2
19:50 50.5 °F 39.6 °F 30.03 in ENE 2 mph 2 mph 66% 0.00 in 60 W/m2
19:55 50.3 °F 40.5 °F 30.03 in NNE 2 mph 2 mph 69% 0.00 in 39 W/m2
20:00 49.9 °F 40.1 °F 30.03 in NNE 1 mph 1 mph 69% 0.00 in 30 W/m2
20:05 49.6 °F 39.1 °F 30.03 in NNE 1 mph 1 mph 67% 0.00 in 26 W/m2
20:10 49.5 °F 40.1 °F 30.03 in NNE 1 mph 1 mph 70% 0.00 in 35 W/m2
20:15 49.3 °F 39.2 °F 30.02 in NNE 1 mph 1 mph 68% 0.00 in 33 W/m2
20:20 49.3 °F 38.8 °F 30.02 in NNE 1 mph 1 mph 67% 0.00 in 32 W/m2
20:25 49.3 °F 39.6 °F 30.02 in NE 1 mph 1 mph 69% 0.00 in 26 W/m2
20:30 49.1 °F 40.1 °F 30.02 in NE 2 mph 2 mph 71% 0.00 in 19 W/m2
20:35 49 °F 40.4 °F 30.02 in NE 1 mph 2 mph 72% 0.00 in 12 W/m2
20:40 49 °F 40.4 °F 30.02 in NE 1 mph 2 mph 72% 0.00 in 7 W/m2
20:45 49 °F 40.7 °F 30.02 in NE 1 mph 2 mph 73% 0.00 in 5 W/m2
20:50 49 °F 40.7 °F 30.02 in NE 1 mph 1 mph 73% 0.00 in 0 W/m2
20:55 48.9 °F 41 °F 30.02 in NE 1 mph 1 mph 74% 0.00 in 0 W/m2
21:00 48.9 °F 40.6 °F 30.02 in Calm   2 mph 73% 0.00 in 0 W/m2
21:05 49.1 °F 39.7 °F 30.02 in NE 1 mph 2 mph 70% 0.00 in 0 W/m2
21:10 49.2 °F 39.5 °F 30.02 in NE 2 mph 2 mph 69% 0.00 in 0 W/m2
21:15 49.1 °F 39.4 °F 30.02 in NE 2 mph 2 mph 69% 0.00 in 0 W/m2
21:20 48.8 °F 39.1 °F 30.03 in ESE 2 mph 6 mph 69% 0.00 in 0 W/m2
21:25 48.5 °F 39.5 °F 30.03 in ESE 3 mph 6 mph 71% 0.00 in 0 W/m2
21:30 48.6 °F 40.7 °F 30.03 in ESE 3 mph 3 mph 74% 0.00 in 0 W/m2
21:35 48.7 °F 41.8 °F 30.03 in SE 3 mph 4 mph 77% 0.00 in 0 W/m2
21:40 48.9 °F 42.3 °F 30.03 in SE 4 mph 4 mph 78% 0.00 in 0 W/m2
21:45 48.8 °F 41.9 °F 30.03 in ESE 4 mph 4 mph 77% 0.00 in 0 W/m2
21:50 48.8 °F 42.6 °F 30.03 in SE 4 mph 4 mph 79% 0.00 in 0 W/m2
21:55 48.8 °F 42.6 °F 30.04 in SE 4 mph 4 mph 79% 0.00 in 0 W/m2
22:00 48.8 °F 42.2 °F 30.04 in SE 5 mph 5 mph 78% 0.00 in 0 W/m2
22:05 48.8 °F 42.6 °F 30.04 in SE 5 mph 5 mph 79% 0.00 in 0 W/m2
22:10 48.7 °F 42.5 °F 30.04 in SE 5 mph 5 mph 79% 0.00 in 0 W/m2
22:15 48.6 °F 42.4 °F 30.04 in SSE 5 mph 5 mph 79% 0.00 in 0 W/m2
22:20 48.5 °F 42 °F 30.04 in SE 4 mph 4 mph 78% 0.00 in 0 W/m2
22:25 48.3 °F 41.8 °F 30.04 in SE 4 mph 4 mph 78% 0.00 in 0 W/m2
22:30 48.1 °F 41.6 °F 30.05 in SE 4 mph 4 mph 78% 0.00 in 0 W/m2
22:35 48 °F 41.8 °F 30.04 in SE 4 mph 5 mph 79% 0.00 in 0 W/m2
22:40 47.9 °F 41.7 °F 30.05 in SE 4 mph 4 mph 79% 0.00 in 0 W/m2
22:45 47.9 °F 41.7 °F 30.04 in SE 4 mph 4 mph 79% 0.00 in 0 W/m2
22:50 47.7 °F 41.2 °F 30.04 in SSE 4 mph 5 mph 78% 0.00 in 0 W/m2
22:55 47.7 °F 41.2 °F 30.05 in SE 4 mph 5 mph 78% 0.00 in 0 W/m2
23:00 47.6 °F 41.1 °F 30.04 in ESE 4 mph 4 mph 78% 0.00 in 0 W/m2
23:05 47.5 °F 40.6 °F 30.04 in SE 4 mph 4 mph 77% 0.00 in 0 W/m2
23:10 47.4 °F 40.9 °F 30.04 in ESE 4 mph 4 mph 78% 0.00 in 0 W/m2
23:15 47.3 °F 40.8 °F 30.04 in SE 4 mph 4 mph 78% 0.00 in 0 W/m2
23:20 47.2 °F 40.7 °F 30.04 in SSE 4 mph 4 mph 78% 0.00 in 0 W/m2
23:25 47.1 °F 40.6 °F 30.04 in SE 4 mph 4 mph 78% 0.00 in 0 W/m2
23:30 47 °F 40.5 °F 30.04 in SE 4 mph 4 mph 78% 0.00 in 0 W/m2
23:35 46.9 °F 40.4 °F 30.04 in SE 3 mph 4 mph 78% 0.00 in 0 W/m2
23:40 46.8 °F 40.3 °F 30.04 in ESE 3 mph 4 mph 78% 0.00 in 0 W/m2
23:45 46.7 °F 40.2 °F 30.03 in SE 4 mph 4 mph 78% 0.00 in 0 W/m2
23:50 46.7 °F 40.5 °F 30.03 in SE 4 mph 5 mph 79% 0.00 in 0 W/m2
23:55 46.6 °F 40.1 °F 30.04 in SE 4 mph 5 mph 78% 0.00 in 0 W/m2
Sand Point, Michigan, USA
Compliments of Weather Underground - 2 mb